Aérodrome :
LOGIN :

S'inscrire | Disclaimer

   EN    FR    IT 

 










Légende :    VFR   VFR Marginal   IFR   IFR Intensif   IFR Très Intensif
Visi : 
Plafond : 
>= 8 km
>= 3000ft
5 à 8 km
1000 à 3000 ft
1500m à 5 km
500 à 1000 ft
800 à 1500m
200 à 500 ft
< 800m
< 200 ft
Symboles :   Orages  Brouillard  Fortes neiges  Fortes précipitations  Vent > 20 kt
SIGMETs :   Divers  Orages  Givrage  Turbulence  Onde Orograph.  Cendres Volcan.






- Altitude de l'aérodrome : 584 ft


LFPV - Villacoublay Vélizy

DERNIER METAR :
  • 280500Z AUTO 22004KT 180V250 CAVOK 11/09 Q1020 NOSIG

METARs EXPIRÉS :
  • 280430Z AUTO 21003KT 170V240 CAVOK 10/09 Q1019 NOSIG
  • 280400Z AUTO 22003KT CAVOK 10/09 Q1019 NOSIG
  • 280330Z AUTO 22004KT 190V250 CAVOK 10/08 Q1019 NOSIG
  • 280300Z AUTO 22004KT CAVOK 10/09 Q1019 NOSIG
  • 280230Z AUTO 22004KT 190V260 CAVOK 10/08 Q1020 NOSIG
  • 280200Z AUTO 21004KT CAVOK 10/08 Q1020 NOSIG
  • 280130Z AUTO 22003KT 200V260 CAVOK 10/08 Q1020 NOSIG
  • 280100Z AUTO VRB02KT CAVOK 10/08 Q1020 NOSIG
  • 280030Z AUTO VRB03KT CAVOK 10/08 Q1020 NOSIG

TAF TAF LFPV
Valide du 28 à 03h jusqu'au 29 à 03h UTC


280200Z 2803/2903 22008KT CAVOK TX16/2815Z TN09/2805Z
BECMG 2807/2810 BKN011
PROB40
TEMPO 2810/2813 4500 -RADZ BKN004
PROB40
TEMPO 2813/2818 4000 -SHRA BKN020TCU
BECMG 2818/2820 BKN025
BECMG 2901/2903 BKN012



MET'MAP, la Météo Aéronautique d'un coup d'oeil ! - Copyright ORBIFLY Décembre 2007 - Disclaimer

ORBIFLY MET'MAP TEAM :

Programmation & Développement : Alexandra Zaïnal
Sur une idée originale de : Baudouin d'Aumeries
Soutien technique & logistique : Manuel Goepfert
Assistance : Marc-Olivier Méhu




SOURCES & CREDITS :

   NOAA